Time;durP1;ratioP1;P1;durP2;ratioP2;P2;SDS_P1;SDS_P2;PMS_P1;PMS_P2;Temp;Humidity;BMP_temperature;BMP_pressure;BME280_temperature;BME280_humidity;BME280_pressure;Samples;Min_cycle;Max_cycle;Signal;HPM_P1;HPM_P2
2021/06/04 00:01:46;;;;;;;0.20;0.20;;;;;;;16.00;83.54;101544.28;5048309;28;20580;-88
2021/06/04 00:04:15;;;;;;;0.10;0.10;;;;;;;15.92;84.16;101537.56;5048046;28;20056;-88
2021/06/04 00:06:44;;;;;;;0.20;0.20;;;;;;;15.87;84.03;101537.63;5047392;28;20057;-89
2021/06/04 00:09:15;;;;;;;0.20;0.20;;;;;;;15.89;84.14;101538.13;5034081;28;20053;-88
2021/06/04 00:11:51;;;;;;;0.20;0.20;;;;;;;15.74;85.79;101543.78;5034316;28;20049;-88
2021/06/04 00:14:35;;;;;;;0.20;0.20;;;;;;;15.74;84.56;101535.53;5039091;28;20474;-88
2021/06/04 00:17:12;;;;;;;0.28;0.20;;;;;;;15.85;84.82;101541.75;5048425;28;20052;-88
2021/06/04 00:19:47;;;;;;;0.20;0.20;;;;;;;15.92;83.99;101547.69;5036671;28;20061;-89
2021/06/04 00:23:16;;;;;;;0.20;0.20;;;;;;;15.98;83.46;101541.03;5047518;28;20053;-88
2021/06/04 00:25:49;;;;;;;0.20;0.20;;;;;;;16.01;83.86;101532.22;5053328;28;20421;-89
2021/06/04 00:28:17;;;;;;;0.22;0.20;;;;;;;15.71;83.98;101494.97;5047109;28;20060;-89
2021/06/04 00:30:47;;;;;;;0.10;0.10;;;;;;;15.93;84.24;101524.63;5035433;28;20056;-88
2021/06/04 00:33:14;;;;;;;0.20;0.20;;;;;;;15.85;84.53;101525.28;5036425;28;20065;-88
2021/06/04 00:35:43;;;;;;;0.25;0.20;;;;;;;15.75;83.76;101507.00;5042437;28;20049;-88
2021/06/04 00:38:11;;;;;;;0.20;0.20;;;;;;;15.84;83.90;101529.13;5046767;28;20063;-88
2021/06/04 00:40:43;;;;;;;0.20;0.20;;;;;;;15.74;84.30;101524.56;5050425;28;20045;-89
2021/06/04 00:43:11;;;;;;;0.10;0.10;;;;;;;15.63;83.77;101513.75;5054808;28;20047;-88
2021/06/04 00:45:51;;;;;;;0.20;0.20;;;;;;;15.72;83.72;101535.84;5044806;28;20053;-89
2021/06/04 00:48:49;;;;;;;0.35;0.30;;;;;;;15.69;84.40;101541.09;5054820;28;20048;-89
2021/06/04 00:51:29;;;;;;;0.20;0.20;;;;;;;15.64;84.88;101531.81;5040490;28;20053;-88
2021/06/04 00:54:15;;;;;;;0.10;0.10;;;;;;;15.67;84.37;101535.91;5041334;28;20046;-89
2021/06/04 01:01:15;;;;;;;0.20;0.20;;;;;;;15.55;84.52;101535.50;5059976;28;20040;-89
2021/06/04 01:08:13;;;;;;;0.20;0.20;;;;;;;15.56;84.62;101539.88;5046900;28;20044;-88
2021/06/04 01:11:00;;;;;;;0.38;0.22;;;;;;;15.53;84.20;101529.50;5038518;28;20060;-88
2021/06/04 01:14:04;;;;;;;0.10;0.10;;;;;;;15.46;83.91;101546.31;5048880;28;20042;-89
2021/06/04 01:16:58;;;;;;;0.20;0.20;;;;;;;15.26;83.23;101504.31;5042316;28;20520;-88
2021/06/04 01:19:51;;;;;;;0.10;0.10;;;;;;;15.39;83.84;101527.47;5049114;28;20045;-88
2021/06/04 01:22:28;;;;;;;0.20;0.20;;;;;;;15.47;82.00;101528.75;5047488;28;20049;-89
2021/06/04 01:25:09;;;;;;;0.20;0.20;;;;;;;15.43;83.20;101520.28;5043414;28;20056;-89
2021/06/04 01:28:34;;;;;;;0.20;0.20;;;;;;;15.45;83.19;101531.78;5038432;28;20056;-88
2021/06/04 01:31:53;;;;;;;0.38;0.22;;;;;;;15.42;83.03;101537.84;5050372;28;20045;-89
2021/06/04 01:35:13;;;;;;;0.57;0.20;;;;;;;15.26;83.53;101530.88;5038707;28;20057;-88
2021/06/04 01:37:56;;;;;;;0.20;0.20;;;;;;;15.10;83.71;101500.91;5046931;28;20049;-89
2021/06/04 01:40:36;;;;;;;0.20;0.20;;;;;;;15.26;84.80;101525.41;5042075;28;20784;-88
2021/06/04 01:43:18;;;;;;;0.20;0.20;;;;;;;15.25;84.41;101532.00;5050552;28;20045;-88
2021/06/04 01:45:55;;;;;;;0.20;0.20;;;;;;;15.19;83.42;101522.19;5037071;28;20391;-89
2021/06/04 01:48:33;;;;;;;0.13;0.13;;;;;;;15.08;84.68;101522.31;5037752;28;20659;-89
2021/06/04 01:51:17;;;;;;;0.20;0.20;;;;;;;15.17;82.55;101538.13;5048871;28;20056;-89
2021/06/04 01:53:55;;;;;;;0.20;0.20;;;;;;;15.12;81.99;101530.75;5060346;28;20044;-88
2021/06/04 01:56:27;;;;;;;0.10;0.10;;;;;;;15.10;82.26;101539.28;5051397;28;20041;-89
2021/06/04 01:59:00;;;;;;;0.20;0.20;;;;;;;15.02;82.49;101528.94;5044604;28;20049;-88
2021/06/04 02:02:09;;;;;;;0.20;0.20;;;;;;;15.11;82.64;101529.94;5047748;28;20394;-89
2021/06/04 02:05:11;;;;;;;0.20;0.20;;;;;;;15.11;82.53;101529.16;5040658;28;20037;-88
2021/06/04 02:07:45;;;;;;;0.32;0.20;;;;;;;14.95;82.32;101512.03;5066393;28;20048;-89
2021/06/04 02:10:20;;;;;;;0.20;0.20;;;;;;;15.07;83.52;101525.34;5052392;28;20063;-88
2021/06/04 02:17:21;;;;;;;0.20;0.20;;;;;;;14.90;83.14;101515.63;5043587;28;20048;-88
2021/06/04 02:20:04;;;;;;;0.17;0.17;;;;;;;14.94;82.91;101522.19;5048366;28;20057;-88
2021/06/04 02:22:51;;;;;;;0.20;0.20;;;;;;;14.93;81.43;101512.31;5040263;28;20045;-87
2021/06/04 02:25:38;;;;;;;0.10;0.10;;;;;;;14.91;82.33;101516.44;5063433;28;20041;-88
2021/06/04 02:32:16;;;;;;;0.15;0.15;;;;;;;14.90;81.29;101520.28;5044884;28;20064;-89
2021/06/04 02:34:51;;;;;;;0.20;0.20;;;;;;;14.83;82.21;101522.53;5039870;28;20049;-88
2021/06/04 02:37:31;;;;;;;0.38;0.20;;;;;;;14.57;82.53;101468.78;5046915;28;20064;-88
2021/06/04 02:40:10;;;;;;;0.25;0.10;;;;;;;14.79;82.16;101508.63;5044892;28;20050;-88
2021/06/04 02:43:08;;;;;;;0.20;0.20;;;;;;;14.83;81.93;101523.38;5045604;28;20053;-88
2021/06/04 02:46:28;;;;;;;0.20;0.20;;;;;;;14.75;81.94;101519.31;5037988;28;20041;-87
2021/06/04 02:53:29;;;;;;;0.20;0.20;;;;;;;14.69;82.41;101517.72;5056366;28;20040;-88
2021/06/04 03:00:12;;;;;;;0.17;0.17;;;;;;;14.54;82.29;101496.75;5044370;28;20045;-88
2021/06/04 03:02:41;;;;;;;0.20;0.20;;;;;;;14.59;82.71;101518.59;5041353;28;20064;-88
2021/06/04 03:05:13;;;;;;;0.20;0.20;;;;;;;14.57;84.54;101522.72;5046764;28;20660;-87
2021/06/04 03:08:03;;;;;;;0.20;0.20;;;;;;;14.61;83.45;101526.53;5057340;28;20041;-87
2021/06/04 03:11:28;;;;;;;0.20;0.20;;;;;;;14.60;83.12;101535.88;5034845;28;20053;-89
2021/06/04 03:18:16;;;;;;;0.10;0.10;;;;;;;14.50;82.60;101520.34;5036892;28;20042;-87
2021/06/04 03:20:57;;;;;;;0.10;0.10;;;;;;;14.34;82.30;101496.91;5042992;28;20054;-88
2021/06/04 03:23:36;;;;;;;0.15;0.15;;;;;;;14.37;82.37;101499.06;5045774;28;20072;-87
2021/06/04 03:26:15;;;;;;;0.20;0.20;;;;;;;14.44;81.85;101514.09;5035923;28;20041;-87
2021/06/04 03:28:44;;;;;;;0.20;0.20;;;;;;;14.43;81.43;101515.19;5045840;28;20049;-87
2021/06/04 03:31:14;;;;;;;0.20;0.20;;;;;;;14.34;81.38;101522.34;5051512;28;20116;-87
2021/06/04 03:34:36;;;;;;;0.28;0.20;;;;;;;14.28;82.47;101526.25;5038910;28;20049;-89
2021/06/04 03:37:08;;;;;;;0.20;0.20;;;;;;;14.21;82.40;101517.50;5048161;28;20045;-88
2021/06/04 03:39:42;;;;;;;0.10;0.10;;;;;;;14.21;82.61;101515.59;5037330;28;20053;-88
2021/06/04 03:42:26;;;;;;;0.13;0.13;;;;;;;14.17;82.00;101517.28;5049282;28;20053;-87
2021/06/04 03:45:00;;;;;;;0.20;0.20;;;;;;;14.15;82.35;101518.66;5045945;28;20379;-88
2021/06/04 03:47:30;;;;;;;0.10;0.10;;;;;;;14.14;82.31;101514.28;5046666;28;20045;-87
2021/06/04 03:49:58;;;;;;;0.10;0.10;;;;;;;14.15;82.04;101514.00;5044541;28;20095;-88
2021/06/04 03:52:27;;;;;;;0.43;0.20;;;;;;;14.03;81.89;101516.25;5053844;28;20500;-88
2021/06/04 03:54:57;;;;;;;0.10;0.10;;;;;;;13.87;82.60;101507.31;5044021;28;20064;-88
2021/06/04 03:57:29;;;;;;;0.20;0.20;;;;;;;13.81;82.62;101503.81;5036221;28;20490;-88
2021/06/04 04:04:22;;;;;;;;;;;;;;;13.87;81.97;101519.06;5046635;28;20505;-88
2021/06/04 04:06:55;;;;;;;0.30;0.28;;;;;;;13.88;82.26;101522.63;5048147;28;20365;-87
2021/06/04 04:09:25;;;;;;;0.22;0.22;;;;;;;13.83;82.84;101512.53;5052913;28;20049;-88
2021/06/04 04:12:21;;;;;;;1.65;0.30;;;;;;;13.83;83.19;101522.66;5057524;28;20060;-88
2021/06/04 04:14:49;;;;;;;0.68;0.20;;;;;;;13.84;82.77;101513.38;5035467;28;20049;-89
2021/06/04 04:17:17;;;;;;;0.20;0.20;;;;;;;13.83;82.49;101519.94;5041673;28;20045;-86
2021/06/04 04:19:55;;;;;;;0.20;0.20;;;;;;;13.88;82.57;101515.25;5044755;28;20390;-86
2021/06/04 04:22:37;;;;;;;0.20;0.20;;;;;;;13.89;82.28;101508.69;5036974;28;20045;-86
2021/06/04 04:25:40;;;;;;;0.20;0.20;;;;;;;13.97;82.52;101523.69;5039115;28;20053;-87
2021/06/04 04:28:40;;;;;;;0.20;0.20;;;;;;;14.03;81.46;101522.56;5041590;28;20053;-86
2021/06/04 04:35:36;;;;;;;0.57;0.30;;;;;;;13.92;82.55;101512.75;5055091;28;20044;-86
2021/06/04 04:38:05;;;;;;;0.30;0.20;;;;;;;14.01;82.07;101527.47;5053460;28;20060;-85
2021/06/04 04:41:02;;;;;;;0.22;0.22;;;;;;;13.96;82.37;101527.50;5035851;28;21619;-87
2021/06/04 04:43:50;;;;;;;0.15;0.15;;;;;;;14.02;82.35;101525.59;5036949;28;20053;-87
2021/06/04 04:47:17;;;;;;;0.25;0.25;;;;;;;14.10;81.68;101525.00;5037603;28;20076;-87
2021/06/04 04:49:51;;;;;;;0.10;0.10;;;;;;;14.10;81.65;101514.03;5031152;28;20060;-87
2021/06/04 04:52:24;;;;;;;0.20;0.20;;;;;;;14.02;80.44;101484.53;5047391;28;20038;-86
2021/06/04 04:54:58;;;;;;;0.20;0.20;;;;;;;14.33;80.93;101526.19;5047487;28;20057;-87
2021/06/04 04:57:59;;;;;;;0.47;0.28;;;;;;;14.41;80.20;101524.78;5037848;28;20068;-87
2021/06/04 05:00:32;;;;;;;0.20;0.20;;;;;;;14.54;80.02;101524.13;5044726;28;20074;-87
2021/06/04 05:03:08;;;;;;;0.30;0.30;;;;;;;14.57;81.08;101530.94;5045256;28;20049;-88
2021/06/04 05:05:41;;;;;;;0.20;0.20;;;;;;;14.40;80.38;101488.38;5044806;28;20049;-87
2021/06/04 05:08:27;;;;;;;1.48;0.20;;;;;;;15.74;77.34;101524.56;5038185;28;20057;-86
2021/06/04 05:11:00;;;;;;;0.30;0.30;;;;;;;16.91;74.15;101532.19;5049469;28;20057;-87
2021/06/04 05:13:36;;;;;;;0.50;0.20;;;;;;;18.06;70.77;101521.41;5043403;28;20053;-87
2021/06/04 05:16:04;;;;;;;0.30;0.30;;;;;;;19.13;68.22;101511.63;5042700;28;20496;-88
2021/06/04 05:18:54;;;;;;;0.30;0.30;;;;;;;19.85;66.01;101517.06;5050682;28;20080;-88
2021/06/04 05:22:28;;;;;;;0.22;0.22;;;;;;;20.58;60.33;101516.41;5042058;28;20060;-87
2021/06/04 05:29:07;;;;;;;0.28;0.25;;;;;;;21.41;58.44;101517.13;5040219;28;20708;-88
2021/06/04 05:31:38;;;;;;;0.40;0.20;;;;;;;21.71;58.48;101519.94;5041938;28;20048;-89
2021/06/04 05:34:06;;;;;;;0.28;0.20;;;;;;;21.40;60.44;101519.09;5061674;28;20490;-90
2021/06/04 05:36:35;;;;;;;0.20;0.20;;;;;;;21.13;57.68;101528.66;5037893;28;20406;-88
2021/06/04 05:39:47;;;;;;;0.28;0.28;;;;;;;20.66;61.30;101536.88;5037772;28;20072;-89
2021/06/04 05:42:51;;;;;;;0.38;0.30;;;;;;;20.47;60.83;101532.50;5046317;28;20060;-89
2021/06/04 05:45:27;;;;;;;0.20;0.20;;;;;;;20.16;65.44;101541.81;5045913;28;20060;-88
2021/06/04 05:48:02;;;;;;;0.20;0.20;;;;;;;20.13;65.89;101533.34;5045662;28;20513;-89
2021/06/04 05:50:39;;;;;;;0.35;0.15;;;;;;;19.36;64.40;101522.56;5049943;28;20060;-87
2021/06/04 05:57:20;;;;;;;0.20;0.20;;;;;;;18.97;64.45;101541.53;5043864;28;20045;-87
2021/06/04 05:59:49;;;;;;;0.10;0.10;;;;;;;18.34;66.58;101504.81;5045710;28;20053;-89
2021/06/04 06:02:18;;;;;;;0.15;0.15;;;;;;;18.35;67.13;101537.56;5041267;28;20076;-88
2021/06/04 06:05:05;;;;;;;0.20;0.20;;;;;;;17.84;67.08;101528.47;5058183;28;20490;-87
2021/06/04 06:07:35;;;;;;;0.20;0.20;;;;;;;17.68;68.88;101527.97;5040962;28;20409;-90
2021/06/04 06:10:05;;;;;;;0.20;0.20;;;;;;;17.35;69.93;101524.53;5053247;28;20043;-89
2021/06/04 06:12:40;;;;;;;0.32;0.20;;;;;;;17.34;71.79;101558.66;5047336;28;20049;-87
2021/06/04 06:16:02;;;;;;;0.45;0.20;;;;;;;17.12;74.37;101559.34;5037718;28;20045;-88
2021/06/04 06:18:37;;;;;;;0.10;0.10;;;;;;;17.05;72.59;101554.22;5039703;28;20049;-88
2021/06/04 06:25:37;;;;;;;0.30;0.30;;;;;;;17.27;75.57;101552.75;5047725;28;20037;-88
2021/06/04 06:28:33;;;;;;;0.10;0.10;;;;;;;17.27;73.90;101563.75;5052848;28;20397;-85
2021/06/04 06:31:09;;;;;;;0.30;0.30;;;;;;;17.29;75.96;101556.81;5041835;28;20053;-89
2021/06/04 06:33:44;;;;;;;0.13;0.13;;;;;;;17.40;76.17;101567.63;5049558;28;20512;-88
2021/06/04 06:36:35;;;;;;;0.25;0.20;;;;;;;17.38;73.46;101567.94;5063380;28;20308;-89
2021/06/04 06:39:15;;;;;;;0.52;0.20;;;;;;;17.28;75.14;101571.69;5045056;28;20049;-88
2021/06/04 06:41:46;;;;;;;0.20;0.20;;;;;;;17.21;72.73;101575.94;5046838;28;20056;-88
2021/06/04 06:44:20;;;;;;;0.20;0.20;;;;;;;17.12;73.88;101571.16;5047817;28;20057;-88
2021/06/04 06:46:53;;;;;;;0.20;0.20;;;;;;;17.41;74.13;101577.50;5050913;28;20052;-88
2021/06/04 06:49:28;;;;;;;0.20;0.20;;;;;;;17.51;75.49;101578.13;5050175;28;20063;-87
2021/06/04 06:52:02;;;;;;;0.20;0.20;;;;;;;17.56;73.14;101579.97;5051417;28;20056;-87
2021/06/04 06:54:35;;;;;;;0.30;0.20;;;;;;;17.63;69.50;101563.84;5051335;28;20067;-88
2021/06/04 06:57:08;;;;;;;0.20;0.20;;;;;;;17.60;72.48;101580.97;5046907;28;20060;-86
2021/06/04 06:59:41;;;;;;;0.70;0.20;;;;;;;17.49;72.05;101566.59;5048212;28;20044;-87
2021/06/04 07:02:15;;;;;;;0.30;0.20;;;;;;;17.35;74.53;101563.03;5047798;28;20056;-89
2021/06/04 07:04:45;;;;;;;0.20;0.20;;;;;;;17.44;71.45;101577.72;5050037;28;20535;-88
2021/06/04 07:07:18;;;;;;;0.10;0.10;;;;;;;17.63;68.72;101571.31;5045663;28;20072;-88
2021/06/04 07:09:51;;;;;;;0.20;0.20;;;;;;;17.42;71.59;101584.66;5044265;28;20095;-87
2021/06/04 07:12:30;;;;;;;0.40;0.20;;;;;;;17.49;72.02;101577.59;5043728;28;21295;-86
2021/06/04 07:15:23;;;;;;;0.20;0.20;;;;;;;17.47;70.20;101585.38;5051202;28;20053;-87
2021/06/04 07:18:11;;;;;;;0.20;0.20;;;;;;;17.63;69.93;101582.31;5048890;28;20049;-87
2021/06/04 07:20:46;;;;;;;2.72;0.30;;;;;;;17.77;69.79;101590.56;5047392;28;20056;-86
2021/06/04 07:23:23;;;;;;;0.20;0.20;;;;;;;17.79;69.92;101591.91;5040175;28;21687;-87
2021/06/04 07:25:56;;;;;;;0.17;0.17;;;;;;;17.67;72.74;101595.16;5043614;28;20048;-85
2021/06/04 07:28:31;;;;;;;0.22;0.20;;;;;;;17.89;69.21;101598.31;5044673;28;20052;-86
2021/06/04 07:31:06;;;;;;;0.10;0.10;;;;;;;17.98;70.82;101594.56;5042239;28;20056;-86
2021/06/04 07:33:47;;;;;;;0.20;0.20;;;;;;;18.22;70.87;101589.94;5043318;28;20063;-86
2021/06/04 07:36:25;;;;;;;0.10;0.10;;;;;;;18.28;71.47;101589.50;5045824;28;20060;-86
2021/06/04 07:39:00;;;;;;;0.10;0.10;;;;;;;18.40;72.65;101582.66;5043217;28;20057;-86
2021/06/04 07:41:33;;;;;;;0.45;0.20;;;;;;;18.47;71.12;101578.31;5044026;28;20057;-86
2021/06/04 07:44:06;;;;;;;0.20;0.20;;;;;;;18.55;69.41;101584.22;5044461;28;20525;-86
2021/06/04 07:46:40;;;;;;;0.20;0.20;;;;;;;18.55;69.31;101585.03;5046927;28;20060;-87
2021/06/04 07:49:14;;;;;;;0.10;0.10;;;;;;;18.24;68.62;101574.72;5047176;28;20422;-86
2021/06/04 07:51:55;;;;;;;0.20;0.20;;;;;;;18.25;70.84;101565.31;5047435;28;20052;-86
2021/06/04 07:54:37;;;;;;;0.20;0.20;;;;;;;18.46;68.47;101579.47;5043491;28;20052;-86
2021/06/04 07:57:07;;;;;;;;;;;;;;;18.50;69.86;101580.44;5054499;28;20056;-86
2021/06/04 07:59:39;;;;;;;0.15;0.15;;;;;;;18.62;68.02;101560.59;5065009;28;19924;-87
2021/06/04 08:02:07;;;;;;;0.17;0.17;;;;;;;18.98;71.89;101581.78;5052128;28;21513;-86
2021/06/04 08:04:35;;;;;;;0.20;0.20;;;;;;;19.00;65.17;101585.06;5047295;28;20056;-86
2021/06/04 08:07:10;;;;;;;0.20;0.20;;;;;;;19.19;70.78;101576.56;5045037;28;20053;-85
2021/06/04 08:09:51;;;;;;;0.20;0.20;;;;;;;19.05;69.18;101550.22;5045181;28;20063;-86
2021/06/04 08:12:30;;;;;;;0.20;0.20;;;;;;;19.39;70.20;101579.91;5047485;28;20408;-84
2021/06/04 08:15:06;;;;;;;0.17;0.17;;;;;;;19.60;69.17;101582.13;5043495;28;20057;-87
2021/06/04 08:17:35;;;;;;;0.20;0.10;;;;;;;19.47;69.11;101584.66;5042004;28;20052;-85
2021/06/04 08:20:11;;;;;;;0.10;0.10;;;;;;;19.35;67.83;101545.81;5049912;28;20068;-85
2021/06/04 08:22:45;;;;;;;0.20;0.20;;;;;;;19.35;68.00;101549.38;5047568;28;20057;-86
2021/06/04 08:25:21;;;;;;;0.13;0.13;;;;;;;19.32;67.84;101576.78;5045419;28;20048;-86
2021/06/04 08:27:55;;;;;;;0.20;0.20;;;;;;;19.57;62.69;101578.03;5044560;28;20060;-86
2021/06/04 08:30:28;;;;;;;0.20;0.20;;;;;;;19.79;66.63;101571.59;5042771;28;20064;-86
2021/06/04 08:33:02;;;;;;;0.20;0.20;;;;;;;19.84;63.02;101574.22;5045439;28;20064;-86
2021/06/04 08:35:38;;;;;;;0.45;0.30;;;;;;;20.03;60.57;101564.84;5045032;28;20057;-85
2021/06/04 08:38:12;;;;;;;0.20;0.20;;;;;;;20.09;62.39;101569.06;5046944;28;20048;-87
2021/06/04 08:40:39;;;;;;;0.55;0.20;;;;;;;20.24;60.48;101564.22;5062573;28;20513;-87
2021/06/04 08:43:49;;;;;;;0.10;0.10;;;;;;;20.25;64.17;101558.38;5047968;28;20418;-87
2021/06/04 08:46:28;;;;;;;0.43;0.10;;;;;;;20.03;65.50;101568.44;5044577;28;20060;-86
2021/06/04 08:49:08;;;;;;;0.20;0.20;;;;;;;20.01;63.45;101536.72;5042478;28;20443;-86
2021/06/04 08:51:52;;;;;;;0.20;0.20;;;;;;;20.27;62.23;101549.75;5046858;28;20061;-86
2021/06/04 08:54:36;;;;;;;0.35;0.20;;;;;;;20.32;63.82;101549.59;5042942;28;20065;-86
2021/06/04 08:57:16;;;;;;;0.20;0.20;;;;;;;20.57;58.76;101564.53;5045607;28;20049;-86
2021/06/04 08:59:49;;;;;;;0.20;0.20;;;;;;;20.44;64.59;101530.41;5043996;28;20053;-87
2021/06/04 09:02:34;;;;;;;0.20;0.20;;;;;;;20.59;62.59;101556.75;5050128;28;20067;-86
2021/06/04 09:05:37;;;;;;;0.20;0.20;;;;;;;21.06;60.32;101553.28;5052152;28;20068;-85
2021/06/04 09:08:09;;;;;;;0.10;0.10;;;;;;;21.12;61.63;101549.16;5045550;28;20056;-86
2021/06/04 09:10:51;;;;;;;0.10;0.10;;;;;;;21.36;62.79;101545.00;5051895;28;20056;-86
2021/06/04 09:13:30;;;;;;;0.20;0.20;;;;;;;21.23;63.74;101538.56;5049597;28;20049;-85
2021/06/04 09:16:09;;;;;;;0.52;0.20;;;;;;;21.29;63.11;101548.28;5049411;28;20048;-86
2021/06/04 09:18:51;;;;;;;0.30;0.20;;;;;;;21.70;59.12;101544.03;5046355;28;20045;-86
2021/06/04 09:21:27;;;;;;;0.20;0.20;;;;;;;21.65;61.97;101518.50;5044093;28;20056;-86
2021/06/04 09:24:03;;;;;;;0.15;0.15;;;;;;;21.94;60.08;101545.34;5042198;28;20716;-86
2021/06/04 09:26:40;;;;;;;0.20;0.20;;;;;;;21.71;55.73;101531.81;5046754;28;20127;-85
2021/06/04 09:29:18;;;;;;;0.20;0.20;;;;;;;21.72;58.52;101524.31;5050004;28;20082;-86
2021/06/04 09:31:53;;;;;;;0.45;0.20;;;;;;;21.69;61.67;101541.63;5045333;28;20057;-86
2021/06/04 09:34:34;;;;;;;0.35;0.20;;;;;;;21.80;55.32;101519.88;5047095;28;20060;-87
2021/06/04 09:37:26;;;;;;;0.20;0.20;;;;;;;21.84;59.32;101518.84;5050730;28;20056;-86
2021/06/04 09:40:18;;;;;;;0.20;0.20;;;;;;;21.98;58.89;101515.81;5044295;28;20059;-87
2021/06/04 09:42:56;;;;;;;0.43;0.10;;;;;;;22.27;55.80;101541.06;5047664;28;20768;-85
2021/06/04 09:45:39;;;;;;;0.20;0.10;;;;;;;22.39;56.28;101544.72;5047302;28;20059;-86
2021/06/04 09:48:33;;;;;;;0.73;0.30;;;;;;;22.17;53.53;101543.06;5046014;28;20060;-86
2021/06/04 09:51:22;;;;;;;0.20;0.20;;;;;;;22.04;56.59;101533.88;5047439;28;20048;-86
2021/06/04 09:54:23;;;;;;;0.17;0.10;;;;;;;22.36;53.84;101519.66;5045089;28;20416;-85
2021/06/04 09:57:08;;;;;;;0.22;0.20;;;;;;;22.42;57.33;101538.47;5049582;28;20048;-87
2021/06/04 09:59:47;;;;;;;0.98;0.20;;;;;;;22.48;53.13;101524.41;5047541;28;21376;-88
2021/06/04 10:02:33;;;;;;;0.20;0.20;;;;;;;22.62;59.69;101533.25;5047083;28;20053;-85
2021/06/04 10:05:18;;;;;;;0.20;0.20;;;;;;;22.71;54.06;101527.63;5046876;28;20052;-86
2021/06/04 10:07:59;;;;;;;0.28;0.20;;;;;;;22.56;55.60;101527.09;5046279;28;20049;-86
2021/06/04 10:10:36;;;;;;;0.20;0.20;;;;;;;22.77;58.43;101520.69;5046517;28;20056;-85
2021/06/04 10:13:14;;;;;;;0.30;0.20;;;;;;;22.99;53.81;101519.47;5045156;28;20053;-86
2021/06/04 10:15:51;;;;;;;0.30;0.20;;;;;;;23.13;54.05;101518.34;5043895;28;20049;-87
2021/06/04 10:18:31;;;;;;;0.20;0.20;;;;;;;23.21;58.70;101526.56;5042266;28;21263;-86
2021/06/04 10:21:16;;;;;;;0.10;0.10;;;;;;;23.29;52.96;101513.75;5042128;28;20067;-88
2021/06/04 10:23:49;;;;;;;0.20;0.20;;;;;;;23.40;52.32;101516.88;5047968;28;20049;-87
2021/06/04 10:26:52;;;;;;;0.10;0.10;;;;;;;23.33;55.20;101517.44;5048759;28;20053;-88
2021/06/04 10:29:29;;;;;;;0.17;0.17;;;;;;;23.39;52.10;101518.03;5048086;28;21350;-86
2021/06/04 10:32:23;;;;;;;0.13;0.13;;;;;;;23.54;51.91;101524.84;5041788;28;20790;-87
2021/06/04 10:35:04;;;;;;;0.20;0.20;;;;;;;23.15;49.84;101491.06;5043033;28;20057;-86
2021/06/04 10:37:37;;;;;;;0.20;0.20;;;;;;;23.56;53.14;101523.34;5047072;28;20048;-86
2021/06/04 10:40:18;;;;;;;0.10;0.10;;;;;;;23.73;48.10;101516.72;5024400;28;20052;-86
2021/06/04 10:43:05;;;;;;;0.22;0.20;;;;;;;23.52;50.39;101516.88;5045155;28;20049;-87
2021/06/04 10:45:37;;;;;;;0.10;0.10;;;;;;;23.48;51.28;101506.78;5043294;28;20402;-88
2021/06/04 10:48:41;;;;;;;0.10;0.10;;;;;;;23.40;52.55;101519.66;5045621;28;20048;-87
2021/06/04 10:51:29;;;;;;;0.10;0.10;;;;;;;23.58;51.73;101521.00;5043712;28;20071;-87
2021/06/04 10:54:33;;;;;;;0.10;0.10;;;;;;;23.78;52.15;101518.44;5041926;28;20052;-86
2021/06/04 10:57:12;;;;;;;0.47;0.10;;;;;;;23.91;50.60;101519.28;5038127;28;20052;-86
2021/06/04 10:59:51;;;;;;;0.10;0.10;;;;;;;23.77;55.68;101484.28;5038346;28;20398;-85
2021/06/04 11:02:38;;;;;;;0.10;0.10;;;;;;;24.02;54.27;101514.03;5038131;28;20056;-86
2021/06/04 11:05:43;;;;;;;0.10;0.10;;;;;;;23.98;54.80;101474.19;5040408;28;20478;-86
2021/06/04 11:08:47;;;;;;;0.15;0.15;;;;;;;24.33;52.87;101507.75;5041802;28;20071;-85
2021/06/04 11:11:48;;;;;;;0.20;0.20;;;;;;;24.38;48.00;101499.19;5038678;28;20071;-89
2021/06/04 11:14:36;;;;;;;0.10;0.10;;;;;;;24.43;53.45;101492.53;5043852;28;21351;-86
2021/06/04 11:17:27;;;;;;;0.10;0.10;;;;;;;24.45;54.76;101481.88;5046681;28;20497;-88
2021/06/04 11:20:06;;;;;;;0.10;0.10;;;;;;;24.58;53.06;101486.22;5045469;28;20041;-86
2021/06/04 11:23:00;;;;;;;0.10;0.10;;;;;;;24.34;49.71;101470.44;5044468;28;20064;-84
2021/06/04 11:25:37;;;;;;;0.10;0.10;;;;;;;24.82;50.65;101500.34;5046445;28;20059;-86
2021/06/04 11:28:30;;;;;;;;;;;;;;;24.98;48.71;101495.59;5047486;28;20044;-85
2021/06/04 11:31:53;;;;;;;0.10;0.10;;;;;;;24.85;45.99;101505.22;5048184;28;19928;-87
2021/06/04 11:35:14;;;;;;;0.10;0.10;;;;;;;25.02;49.90;101504.84;5046506;28;20057;-89
2021/06/04 11:38:18;;;;;;;0.65;0.20;;;;;;;25.06;50.69;101493.81;5043028;28;20049;-85
2021/06/04 11:40:59;;;;;;;0.25;0.20;;;;;;;25.12;51.58;101498.75;5045391;28;20559;-86
2021/06/04 11:43:36;;;;;;;0.20;0.10;;;;;;;25.08;46.15;101486.72;5043697;28;20044;-86
2021/06/04 11:46:18;;;;;;;0.20;0.20;;;;;;;25.09;47.22;101481.94;5043050;28;20057;-89
2021/06/04 11:49:07;;;;;;;0.10;0.10;;;;;;;25.15;41.75;101482.47;5046559;28;20049;-87
2021/06/04 11:51:51;;;;;;;0.10;0.10;;;;;;;25.11;46.75;101496.34;5040787;28;20049;-87
2021/06/04 11:54:40;;;;;;;0.10;0.10;;;;;;;25.13;45.72;101471.72;5042302;28;20146;-86
2021/06/04 11:57:51;;;;;;;0.10;0.10;;;;;;;25.15;47.20;101488.88;5047683;28;20040;-87
2021/06/04 12:00:44;;;;;;;0.10;0.10;;;;;;;25.11;43.76;101443.44;5036431;28;20049;-88
2021/06/04 12:03:56;;;;;;;0.20;0.20;;;;;;;25.44;42.71;101475.66;5045425;28;20060;-87
2021/06/04 12:07:00;;;;;;;0.17;0.17;;;;;;;25.28;41.85;101476.44;5044062;28;20051;-86
2021/06/04 12:09:46;;;;;;;0.20;0.20;;;;;;;25.32;46.83;101472.97;5036588;28;20056;-87
2021/06/04 12:12:54;;;;;;;0.20;0.20;;;;;;;25.49;49.26;101477.34;5041394;28;20052;-86
2021/06/04 12:15:48;;;;;;;0.20;0.20;;;;;;;25.54;42.36;101466.72;4962873;28;20057;-86
2021/06/04 12:18:49;;;;;;;0.10;0.10;;;;;;;25.62;45.64;101470.50;5049843;28;20056;-87
2021/06/04 12:21:57;;;;;;;0.25;0.20;;;;;;;25.53;41.98;101462.31;5040762;28;20052;-87
2021/06/04 12:25:02;;;;;;;0.10;0.10;;;;;;;25.77;45.78;101452.91;5040682;28;20049;-85
2021/06/04 12:28:03;;;;;;;0.30;0.20;;;;;;;25.74;40.90;101462.00;5042506;28;20614;-86
2021/06/04 12:30:51;;;;;;;0.60;0.10;;;;;;;25.94;41.27;101454.44;5041576;28;21089;-88
2021/06/04 12:33:51;;;;;;;0.20;0.17;;;;;;;25.58;45.24;101461.25;5041776;28;20071;-87
2021/06/04 12:36:51;;;;;;;0.20;0.20;;;;;;;25.41;41.18;101449.34;5046733;28;20061;-85
2021/06/04 12:39:42;;;;;;;0.32;0.20;;;;;;;25.57;41.10;101460.41;5037897;28;20064;-88
2021/06/04 12:42:18;;;;;;;0.47;0.10;;;;;;;25.73;43.77;101443.66;5046315;28;20045;-86
2021/06/04 12:45:01;;;;;;;0.10;0.10;;;;;;;25.35;42.87;101453.56;5041631;28;20095;-87
2021/06/04 12:47:40;;;;;;;0.20;0.20;;;;;;;24.94;43.51;101422.31;5043170;28;20061;-86
2021/06/04 12:50:14;;;;;;;0.10;0.10;;;;;;;25.49;43.03;101449.47;5046351;28;20797;-87
2021/06/04 12:52:43;;;;;;;0.20;0.20;;;;;;;25.46;42.76;101443.44;5043585;28;20056;-88
2021/06/04 12:55:25;;;;;;;0.20;0.20;;;;;;;25.78;40.89;101443.38;5041184;28;20049;-85
2021/06/04 12:58:11;;;;;;;0.10;0.10;;;;;;;25.37;41.13;101405.81;5042612;28;20063;-87
2021/06/04 13:00:41;;;;;;;0.20;0.20;;;;;;;25.70;44.30;101438.00;5039021;28;20535;-87
2021/06/04 13:03:19;;;;;;;0.10;0.10;;;;;;;25.54;42.92;101411.00;5042712;28;20063;-87
2021/06/04 13:05:57;;;;;;;0.13;0.13;;;;;;;25.56;42.19;101405.88;5042202;28;20049;-87
2021/06/04 13:08:57;;;;;;;0.10;0.10;;;;;;;26.11;43.57;101433.69;5045062;28;20056;-86
2021/06/04 13:11:42;;;;;;;0.10;0.10;;;;;;;26.11;45.88;101427.31;5040775;28;20060;-88
2021/06/04 13:14:32;;;;;;;0.10;0.10;;;;;;;26.18;44.76;101416.28;5045026;28;20056;-88
2021/06/04 13:17:26;;;;;;;0.10;0.10;;;;;;;26.34;40.39;101427.34;5043122;28;20721;-87
2021/06/04 13:20:09;;;;;;;0.15;0.15;;;;;;;26.09;43.14;101397.00;5040550;28;20053;-86
2021/06/04 13:22:41;;;;;;;0.38;0.10;;;;;;;26.01;39.76;101425.88;5046402;28;20049;-87
2021/06/04 13:25:13;;;;;;;0.32;0.15;;;;;;;26.01;42.90;101420.31;5043203;28;20064;-86
2021/06/04 13:27:46;;;;;;;0.10;0.10;;;;;;;26.01;38.12;101423.09;5045146;28;20053;-87
2021/06/04 13:30:20;;;;;;;0.10;0.10;;;;;;;25.93;41.99;101390.66;5040852;28;20064;-86